Terminal Aerodrome Forecast
Issued by NWS

Home | Current Version | Previous Version | Text Only | Print | Product List | Glossary On
Versions: 1 2 3 4 5 6 7 8 9 10 11 12 13
000
FTUS45 KABQ 040541
TAFAEG
TAF
KAEG 040541Z 0406/0506 30005KT P6SM BKN100
     FM041200 18007KT P6SM VCSH BKN080
     FM042000 19014G22KT P6SM VCTS BKN080CB
     FM050000 18012G18KT P6SM VCSH BKN090
     FM050300 24007KT P6SM BKN060=

USA.gov is the U.S. government's official web portal to all federal, state and local government web resources and services.